»·PEaware :: N335AK KSAC-KCMA

N335AK :: KSAC-KCMA

FLIGHT INFORMATION

Flight Status: Arrived
Operator: Privately registered:
United States
More flights under this callsign
Pilot: Gabor H. (24209)
Aircraft: Unknown
(EPIC)
More flights by this aircraft type
Origin: KSAC Sacramento Executive
United States
Destination: KCMA Camarillo
United States
More flights between these airports :: More routes between these airports
Route: +FROGO FRA EHF GUERA SESPE
File this flight plan on PilotEdge
Remarks:
Altitude:
(Current/Filed)
23,000ft
Speed:
(Current/Filed)
325kts
Departed: 10-Sep-20 06:20 PM
Arrived: 10-Sep-20 07:27 PM
Distance/Time
Traveled:
283nm/1:07
Distance/Time
To Go:
Arrived

Flight Plot

Page will automatically refresh every two minutes.

Flight plan parsing failed; only flown route is shown


Map Options




Map Legend


Flown Route
Filed Route
Departure Airport
Arrival Airport
Navaid (VOR, NDB)
Fix

Horizontal Profiles

Position Reports

Time Latitude Longitude Heading Altitude Ground
Speed
10-Sep-20 18:05 38.514770 -121.498394 226 23ft 0kts
10-Sep-20 18:06 38.514770 -121.498394 226 23ft 0kts
10-Sep-20 18:07 38.514770 -121.498394 226 23ft 0kts
10-Sep-20 18:08 38.514770 -121.498394 226 23ft 0kts
10-Sep-20 18:09 38.514770 -121.498394 226 23ft 0kts
10-Sep-20 18:10 38.514770 -121.498394 226 23ft 0kts
10-Sep-20 18:11 38.514770 -121.498394 226 23ft 0kts
10-Sep-20 18:12 38.514770 -121.498394 226 23ft 0kts
10-Sep-20 18:13 38.514770 -121.498394 226 23ft 0kts
10-Sep-20 18:14 38.514770 -121.498394 226 23ft 0kts
10-Sep-20 18:15 38.514258 -121.497558 111 23ft 6kts
10-Sep-20 18:16 38.514703 -121.494542 34 25ft 11kts
10-Sep-20 18:17 38.518846 -121.491111 34 25ft 5kts
10-Sep-20 18:18 38.519205 -121.490388 91 25ft 0kts
10-Sep-20 18:19 38.516275 -121.491492 214 25ft 76kts
10-Sep-20 18:20 38.485589 -121.486115 104 1977ft 181kts
10-Sep-20 18:21 38.473689 -121.413092 102 4200ft 215kts
10-Sep-20 18:22 38.456709 -121.339416 113 7082ft 223kts
10-Sep-20 18:23 38.431801 -121.265540 114 9838ft 232kts
10-Sep-20 18:24 38.405702 -121.189082 113 12442ft 241kts
10-Sep-20 18:25 38.378585 -121.109906 113 14943ft 248kts
10-Sep-20 18:26 38.350498 -121.028110 112 17210ft 257kts
10-Sep-20 18:27 38.321172 -120.942938 112 19120ft 267kts
10-Sep-20 18:28 38.290829 -120.855081 111 20759ft 275kts
10-Sep-20 18:29 38.259520 -120.764723 111 22212ft 277kts
10-Sep-20 18:30 38.225655 -120.678915 136 23101ft 286kts
10-Sep-20 18:31 38.159950 -120.612299 140 23095ft 313kts
10-Sep-20 18:32 38.089806 -120.543543 140 23093ft 324kts
10-Sep-20 18:33 38.017796 -120.473148 140 23092ft 328kts
10-Sep-20 18:34 37.945082 -120.402245 140 23092ft 330kts
10-Sep-20 18:35 37.873203 -120.332335 141 23070ft 331kts
10-Sep-20 18:36 37.800016 -120.261334 141 23028ft 331kts
10-Sep-20 18:37 37.726695 -120.190382 141 23000ft 331kts
10-Sep-20 18:38 37.653715 -120.119942 141 23009ft 330kts
10-Sep-20 18:39 37.580563 -120.049515 141 23028ft 330kts
10-Sep-20 18:40 37.507635 -119.979481 141 23046ft 330kts
10-Sep-20 18:41 37.434543 -119.909464 141 23054ft 330kts
10-Sep-20 18:42 37.361499 -119.839672 141 23055ft 330kts
10-Sep-20 18:43 37.288344 -119.769948 141 23055ft 330kts
10-Sep-20 18:44 37.214957 -119.700178 141 23050ft 331kts
10-Sep-20 18:45 37.141469 -119.630485 141 23047ft 331kts
10-Sep-20 18:46 37.059522 -119.581457 164 23047ft 334kts
10-Sep-20 18:47 36.968906 -119.552930 163 23047ft 338kts
10-Sep-20 18:48 36.877176 -119.524239 163 23043ft 340kts
10-Sep-20 18:49 36.785266 -119.495573 163 23043ft 340kts
10-Sep-20 18:51 36.693506 -119.467023 163 23045ft 340kts
10-Sep-20 18:52 36.601220 -119.438379 163 23047ft 340kts
10-Sep-20 18:53 36.509132 -119.409870 163 23049ft 341kts
10-Sep-20 18:54 36.416937 -119.381394 163 23050ft 341kts
10-Sep-20 18:55 36.324929 -119.353046 163 23051ft 341kts
10-Sep-20 18:56 36.233838 -119.325051 164 23054ft 341kts
10-Sep-20 18:57 36.141369 -119.296699 164 23056ft 341kts
10-Sep-20 18:58 36.048669 -119.268346 164 23063ft 341kts
10-Sep-20 18:59 35.956058 -119.240090 164 23063ft 342kts
10-Sep-20 19:00 35.865330 -119.212471 164 23052ft 342kts
10-Sep-20 19:01 35.772685 -119.184339 164 23049ft 341kts
10-Sep-20 19:02 35.679761 -119.156189 164 23045ft 341kts
10-Sep-20 19:03 35.587467 -119.128297 164 23045ft 341kts
10-Sep-20 19:04 35.494608 -119.100300 164 23045ft 341kts
10-Sep-20 19:05 35.402883 -119.066162 160 23046ft 341kts
10-Sep-20 19:06 35.311447 -119.031415 160 23046ft 342kts
10-Sep-20 19:06 35.236148 -119.002850 164 22430ft 345kts
10-Sep-20 19:08 35.127770 -118.961868 164 20281ft 347kts
10-Sep-20 19:09 35.034870 -118.926836 164 18269ft 344kts
10-Sep-20 19:09 34.960496 -118.898862 162 16584ft 328kts
10-Sep-20 19:11 34.857605 -118.866483 171 14225ft 329kts
10-Sep-20 19:11 34.782230 -118.854424 171 13146ft 311kts
10-Sep-20 19:12 34.696785 -118.840997 171 12451ft 312kts
10-Sep-20 19:14 34.600281 -118.825873 172 10157ft 285kts
10-Sep-20 19:14 34.534442 -118.815573 172 8798ft 278kts
10-Sep-20 19:15 34.458923 -118.803780 172 7226ft 268kts
10-Sep-20 19:16 34.386089 -118.792427 173 5817ft 260kts
10-Sep-20 19:17 34.314395 -118.784116 185 4985ft 252kts
10-Sep-20 19:18 34.250258 -118.793177 187 4307ft 217kts
10-Sep-20 19:19 34.212018 -118.832411 267 3732ft 204kts
10-Sep-20 19:20 34.211978 -118.896979 271 3157ft 161kts
10-Sep-20 19:21 34.212386 -118.940729 272 2453ft 129kts
10-Sep-20 19:22 34.212749 -118.977476 271 1885ft 113kts
10-Sep-20 19:23 34.213096 -119.016199 271 1224ft 114kts
10-Sep-20 19:24 34.213403 -119.052723 270 603ft 89kts
10-Sep-20 19:25 34.213680 -119.084601 269 87ft 81kts
10-Sep-20 19:26 34.212656 -119.090886 197 80ft 0kts
10-Sep-20 19:27 34.211041 -119.089863 244 80ft 10kts
10-Sep-20 19:28 34.210595 -119.091628 270 80ft 0kts
10-Sep-20 19:29 34.210595 -119.091628 270 80ft 0kts
10-Sep-20 19:30 34.210595 -119.091628 270 80ft 0kts
10-Sep-20 19:31 34.210595 -119.091628 270 80ft 0kts
10-Sep-20 19:32 34.210595 -119.091628 270 80ft 0kts

Navigation Log

Ident Type
Flight plan parsing failed, navigation log unavailable